Norton, MA

2:10 AM EDT on September 03, 2015 (GMT -0400)
Wheaton College | | Change Station
CLOSE
Current Station
Personal Weather Station
Location: Norton, MA
Elevation: 80 ft
Nearby Weather Stations

Elev 80 ft 41.97 °N, 71.18 °W | Updated 32 seconds ago

Clear
Clear
69.0 °F
Feels Like 69.0 °F
N
1.0
Wind Variable Wind from West
Gusts 3.0 mph

Today
High -- | Low -- °F
--% Chance of Precip.
Yesterday
High -- | Low -- °F
Precip. -- in
6:12 AM 7:15 PM
Waning Gibbous, 73% visible
Pressure 29.85 in
Visibility 10.0 miles
Clouds Clear
Dew Point 67 °F
Humidity 94%
Rainfall 0.00 in
Snow Depth Not available.
UV 0 out of 12
Pollen 8.70 out of 12
Air Quality Not available.
Flu Activity Not available.
METAR KTAN 030552Z AUTO 00000KT 10SM CLR 19/17 A2985 RMK AO2 SLP108 T01890172 10239 20189 57008
Pressure 29.85 in
Visibility 10.0 miles
Clouds Clear
Dew Point 67 °F
Humidity 94%
Rainfall 0.00 in
Snow Depth Not available.
UV 0 out of 12
Pollen 8.70 out of 12
Air Quality Not available.
Flu Activity Not available.
METAR KTAN 030552Z AUTO 00000KT 10SM CLR 19/17 A2985 RMK AO2 SLP108 T01890172 10239 20189 57008

10-Day Weather Forecast

×

Almanac

Astronomy

Sep. 03, 2015 Rise Set
Actual Time
Civil Twilight
Nautical Twilight
Astronomical Twilight
Moon
Length of Visible Light
Length of Day
Tomorrow will be .
, % of the Moon is Illuminated

Today's Extremes

State Highs State Lows

Community

WunderPhotos

Upload Photos

1,851,914 photos uploaded!

WunderBlogs® & News

Nearby

Air Quality

  Air Quality AQ Index Pollutant
Not available.

Snow Depth

Station Depth Elevation

Earthquake Activity

City Distance Mag. Time & Date
Minimum magnitude displayed is 2.5.

Coastal Water Temperatures

Place Temperature

Stations

Nearby Weather Stations

Station Location Temp. Windchill Dew Point Humidity Wind Precip. Elev Updated Type